createdAt,value
2022-11-27T00:01:46.018Z,7.85
2022-11-27T00:06:47.610Z,7.65
2022-11-27T00:11:49.192Z,7.82
2022-11-27T00:16:51.042Z,8.32
2022-11-27T00:21:52.627Z,7.63
2022-11-27T00:26:54.205Z,6.82
2022-11-27T00:31:57.482Z,7.40
2022-11-27T00:36:59.052Z,6.60
2022-11-27T00:42:00.830Z,7.13
2022-11-27T00:47:02.479Z,6.70
2022-11-27T00:52:04.260Z,6.38
2022-11-27T00:57:06.156Z,6.65
2022-11-27T01:02:07.832Z,5.55
2022-11-27T01:07:09.539Z,5.88
2022-11-27T01:12:11.207Z,6.32
2022-11-27T01:17:12.964Z,6.28
2022-11-27T01:22:14.569Z,6.18
2022-11-27T01:27:16.158Z,6.65
2022-11-27T01:32:17.762Z,5.53
2022-11-27T01:37:19.772Z,5.47
2022-11-27T01:42:21.352Z,6.05
2022-11-27T01:47:44.156Z,6.68
2022-11-27T01:52:50.616Z,6.28
2022-11-27T01:57:58.445Z,6.30
2022-11-27T02:03:00.105Z,6.60
2022-11-27T02:08:07.270Z,6.13
2022-11-27T02:13:21.653Z,6.60
2022-11-27T02:18:48.757Z,5.75
2022-11-27T02:24:13.144Z,5.85
2022-11-27T02:29:19.825Z,5.97
2022-11-27T02:34:43.125Z,6.00
2022-11-27T02:40:01.558Z,6.35
2022-11-27T02:45:12.275Z,6.40
2022-11-27T02:50:19.973Z,6.10
2022-11-27T02:55:26.205Z,6.80
2022-11-27T03:00:30.079Z,6.72
2022-11-27T03:05:36.203Z,6.55
2022-11-27T03:10:55.453Z,6.22
2022-11-27T03:21:29.044Z,5.93
2022-11-27T03:26:31.647Z,7.07
2022-11-27T03:31:33.393Z,5.95
2022-11-27T03:36:35.152Z,7.03
2022-11-27T03:41:58.660Z,6.35
2022-11-27T03:47:26.509Z,5.90
2022-11-27T03:52:49.253Z,5.45
2022-11-27T03:58:01.124Z,6.78
2022-11-27T04:03:04.332Z,6.38
2022-11-27T04:08:06.229Z,6.85
2022-11-27T04:13:07.841Z,6.90
2022-11-27T04:18:09.421Z,6.30
2022-11-27T04:23:11.188Z,7.05
2022-11-27T04:28:12.760Z,6.45
2022-11-27T04:33:14.503Z,8.63
2022-11-27T04:38:16.294Z,8.90
2022-11-27T04:43:17.948Z,7.68
2022-11-27T04:48:19.524Z,7.85
2022-11-27T04:53:21.194Z,8.88
2022-11-27T04:58:22.808Z,10.13
2022-11-27T05:03:24.432Z,12.48
2022-11-27T05:08:26.362Z,15.15
2022-11-27T05:13:28.014Z,11.38
2022-11-27T05:18:29.826Z,9.45
2022-11-27T05:23:32.339Z,8.02
2022-11-27T05:28:33.919Z,8.02
2022-11-27T05:33:35.700Z,7.55
2022-11-27T05:38:37.308Z,7.10
2022-11-27T05:43:39.137Z,6.63
2022-11-27T05:48:41.116Z,6.57
2022-11-27T05:53:42.871Z,7.18
2022-11-27T05:58:46.779Z,7.38
2022-11-27T06:03:48.532Z,7.05
2022-11-27T06:08:50.447Z,7.07
2022-11-27T06:13:52.041Z,7.13
2022-11-27T06:18:55.887Z,8.35
2022-11-27T06:23:57.883Z,7.75
2022-11-27T06:29:01.004Z,7.63
2022-11-27T06:34:04.252Z,8.05
2022-11-27T06:39:08.107Z,8.10
2022-11-27T06:44:10.648Z,7.55
2022-11-27T06:49:12.377Z,8.07
2022-11-27T06:54:13.967Z,8.65
2022-11-27T06:59:16.442Z,8.90
2022-11-27T07:04:18.127Z,7.47
2022-11-27T07:09:19.749Z,7.85
2022-11-27T07:14:21.457Z,6.78
2022-11-27T07:19:23.056Z,6.75
2022-11-27T07:24:24.730Z,8.75
2022-11-27T07:29:26.603Z,8.43
2022-11-27T07:34:28.261Z,8.52
2022-11-27T07:40:00.362Z,9.63
2022-11-27T07:44:51.693Z,8.63
2022-11-27T07:49:55.130Z,7.93
2022-11-27T07:54:56.764Z,8.00
2022-11-27T07:59:58.347Z,7.30
2022-11-27T08:05:00.079Z,7.80
2022-11-27T08:10:01.765Z,8.30
2022-11-27T08:15:05.700Z,8.70
2022-11-27T08:20:07.954Z,9.88
2022-11-27T08:25:09.634Z,9.68
2022-11-27T08:30:11.432Z,9.90
2022-11-27T08:35:13.021Z,12.48
2022-11-27T08:40:14.918Z,12.40
2022-11-27T08:45:16.583Z,12.73
2022-11-27T08:50:18.655Z,13.23
2022-11-27T08:55:20.287Z,14.75
2022-11-27T09:00:27.594Z,15.73
2022-11-27T09:05:30.636Z,16.58
2022-11-27T09:10:32.536Z,14.35
2022-11-27T09:15:34.310Z,12.07
2022-11-27T09:20:36.140Z,10.40
2022-11-27T09:25:39.524Z,10.00
2022-11-27T09:30:41.107Z,8.63
2022-11-27T09:35:42.959Z,9.55
2022-11-27T09:40:49.124Z,10.18
2022-11-27T09:46:00.840Z,10.48
2022-11-27T09:51:11.589Z,9.50
2022-11-27T09:56:17.664Z,10.05
2022-11-27T10:01:32.138Z,9.68
2022-11-27T10:06:56.058Z,13.23
2022-11-27T10:12:14.490Z,10.98
2022-11-27T10:17:22.654Z,9.80
2022-11-27T10:22:51.065Z,10.10
2022-11-27T10:28:12.952Z,9.63
2022-11-27T10:33:20.317Z,10.07
2022-11-27T10:38:28.029Z,10.15
2022-11-27T10:43:29.695Z,9.68
2022-11-27T10:48:32.699Z,10.00
2022-11-27T10:53:37.242Z,9.23
2022-11-27T10:58:46.412Z,9.98
2022-11-27T11:03:48.193Z,8.95
2022-11-27T11:09:03.954Z,10.13
2022-11-27T11:14:22.917Z,8.50
2022-11-27T11:19:34.571Z,7.80
2022-11-27T11:24:42.363Z,8.25
2022-11-27T11:29:51.736Z,7.63
2022-11-27T11:35:03.608Z,8.43
2022-11-27T11:40:16.280Z,8.13
2022-11-27T11:45:20.150Z,8.48
2022-11-27T11:50:42.722Z,8.48
2022-11-27T11:56:17.913Z,8.43
2022-11-27T12:01:58.959Z,7.78
2022-11-27T12:07:24.796Z,9.07
2022-11-27T12:12:55.278Z,7.68
2022-11-27T12:18:32.991Z,6.75
2022-11-27T12:24:05.577Z,6.43
2022-11-27T12:29:35.885Z,7.35
2022-11-27T12:34:57.930Z,6.75
2022-11-27T12:40:14.508Z,6.30
2022-11-27T12:45:21.144Z,8.48
2022-11-27T12:50:32.674Z,5.10
2022-11-27T12:55:36.327Z,5.95
2022-11-27T13:00:42.617Z,5.93
2022-11-27T13:05:50.001Z,5.90
2022-11-27T13:11:01.660Z,6.40
2022-11-27T13:16:19.805Z,5.78
2022-11-27T13:21:29.337Z,6.30
2022-11-27T13:26:44.738Z,5.35
2022-11-27T13:31:53.862Z,6.38
2022-11-27T13:42:04.690Z,5.97
2022-11-27T13:47:16.298Z,6.78
2022-11-27T13:52:21.141Z,7.28
2022-11-27T13:57:24.614Z,7.25
2022-11-27T14:02:59.248Z,6.95
2022-11-27T14:08:00.978Z,8.30
2022-11-27T14:13:06.109Z,6.80
2022-11-27T14:18:19.521Z,6.97
2022-11-27T14:23:33.536Z,5.93
2022-11-27T14:28:37.013Z,5.53
2022-11-27T14:34:07.372Z,5.63
2022-11-27T14:39:06.136Z,5.35
2022-11-27T14:44:15.439Z,5.82
2022-11-27T14:49:21.151Z,5.53
2022-11-27T14:54:33.181Z,6.05
2022-11-27T14:59:34.800Z,5.70
2022-11-27T15:04:38.878Z,5.57
2022-11-27T15:09:45.944Z,6.35
2022-11-27T15:15:06.489Z,5.78
2022-11-27T15:20:15.731Z,5.30
2022-11-27T15:25:41.052Z,5.20
2022-11-27T15:30:45.864Z,6.55
2022-11-27T15:35:51.273Z,6.50
2022-11-27T15:41:00.818Z,5.47
2022-11-27T15:46:06.267Z,6.07
2022-11-27T15:51:07.899Z,6.32
2022-11-27T15:56:09.600Z,5.85
2022-11-27T16:01:11.919Z,5.93
2022-11-27T16:06:13.646Z,5.32
2022-11-27T16:11:19.449Z,5.53
2022-11-27T16:16:21.367Z,6.28
2022-11-27T16:21:29.138Z,7.00
2022-11-27T16:26:31.786Z,8.13
2022-11-27T16:31:33.527Z,7.03
2022-11-27T16:36:37.637Z,7.20
2022-11-27T16:41:39.427Z,6.10
2022-11-27T16:46:43.755Z,6.78
2022-11-27T16:51:45.768Z,6.93
2022-11-27T16:56:48.553Z,7.03
2022-11-27T17:01:51.552Z,7.53
2022-11-27T17:06:53.269Z,7.30
2022-11-27T17:11:55.252Z,8.45
2022-11-27T17:17:00.320Z,8.55
2022-11-27T17:22:04.387Z,8.25
2022-11-27T17:27:09.095Z,6.93
2022-11-27T17:32:12.946Z,15.00
2022-11-27T17:37:15.206Z,16.50
2022-11-27T17:42:22.420Z,17.33
2022-11-27T17:47:24.634Z,13.65
2022-11-27T17:52:26.211Z,20.40
2022-11-27T17:57:27.867Z,24.27
2022-11-27T18:02:30.230Z,28.55
2022-11-27T18:07:32.639Z,29.77
2022-11-27T18:12:34.312Z,29.95
2022-11-27T18:17:36.915Z,33.65
2022-11-27T18:22:38.603Z,32.45
2022-11-27T18:27:41.128Z,30.77
2022-11-27T18:32:42.814Z,30.42
2022-11-27T18:37:44.459Z,28.65
2022-11-27T18:42:46.040Z,28.23
2022-11-27T18:47:47.688Z,26.58
2022-11-27T18:52:50.452Z,28.02
2022-11-27T18:57:53.187Z,27.23
2022-11-27T19:02:54.860Z,31.13
2022-11-27T19:07:56.578Z,30.35
2022-11-27T19:12:58.233Z,28.55
2022-11-27T19:17:59.863Z,30.17
2022-11-27T19:23:02.323Z,31.58
2022-11-27T19:28:06.015Z,29.88
2022-11-27T19:33:08.309Z,29.42
2022-11-27T19:38:09.897Z,30.67
2022-11-27T19:43:11.748Z,29.52
2022-11-27T19:48:13.523Z,28.55
2022-11-27T19:53:15.500Z,28.25
2022-11-27T19:58:17.391Z,28.55
2022-11-27T20:03:19.260Z,30.60
2022-11-27T20:08:21.014Z,30.65
2022-11-27T20:13:23.205Z,29.20
2022-11-27T20:18:27.880Z,29.20
2022-11-27T20:23:29.731Z,28.88
2022-11-27T20:28:31.588Z,31.05
2022-11-27T20:33:33.913Z,29.70
2022-11-27T20:38:35.550Z,27.90
2022-11-27T20:43:37.836Z,28.38
2022-11-27T20:48:39.786Z,29.60
2022-11-27T20:53:43.717Z,28.55
2022-11-27T20:58:46.946Z,28.15
2022-11-27T21:03:50.508Z,26.23
2022-11-27T21:08:53.676Z,26.38
2022-11-27T21:14:01.044Z,27.95
2022-11-27T21:19:06.448Z,29.77
2022-11-27T21:24:08.416Z,30.50
2022-11-27T21:29:12.454Z,28.92
2022-11-27T21:34:15.357Z,27.45
2022-11-27T21:39:20.539Z,27.00
2022-11-27T21:44:24.059Z,28.27
2022-11-27T21:49:25.645Z,27.70
2022-11-27T21:54:29.406Z,28.08
2022-11-27T21:59:31.485Z,29.15
2022-11-27T22:04:33.366Z,29.10
2022-11-27T22:09:35.037Z,30.08
2022-11-27T22:14:36.628Z,32.00
2022-11-27T22:19:42.311Z,32.38
2022-11-27T22:24:44.238Z,34.80
2022-11-27T22:29:46.020Z,32.45
2022-11-27T22:34:48.704Z,32.97
2022-11-27T22:39:50.335Z,34.35
2022-11-27T22:44:52.121Z,32.80
2022-11-27T22:49:53.815Z,34.47
2022-11-27T22:54:55.895Z,33.78
2022-11-27T22:59:57.931Z,34.30
2022-11-27T23:04:59.512Z,35.25
2022-11-27T23:10:01.205Z,34.08
2022-11-27T23:15:03.155Z,36.85
2022-11-27T23:20:05.574Z,35.20
2022-11-27T23:25:07.758Z,33.53
2022-11-27T23:30:09.829Z,34.95
2022-11-27T23:35:11.700Z,33.58
2022-11-27T23:40:13.711Z,34.28
2022-11-27T23:45:15.386Z,35.10
2022-11-27T23:50:17.526Z,32.55
2022-11-27T23:55:19.228Z,35.70
